Skip to main content.
Station Historical Data
 
Daily Summary for May 25, 2018 Units:  Both    English   Metric
Next Day »
Daily Weekly Monthly Yearly Custom
  Current: High: Low: Average:
Temperature: 71.4 °F /  21.9 °C 71.4 °F /  21.9 °C 66.4 °F /  19.1 °C 68.5 °F /  20.3 °C
Dew Point: 60.4 °F /  15.8 °C 64.2 °F /  17.9 °C 57.6 °F /  14.2 °C 62.1 °F /  16.7 °C
Humidity: 68% 89% 65% 80%
Wind Speed: 10.4mph /  16.7km/h 12mph /  19.3km/h - 7.5mph /  12.1km/h
Wind Gust: 12mph /  19.3km/h 13.8mph /  22.2km/h - -
WindWNW - - SSW
Pressure: 29.8 in /  1008.7 hPa 29.8 in /  1010.4 hPa 29.8 in /  1007.7 hPa -
Precipitation: 0 in /  0.0 mm      
Historical Graphs
 
 
Tabular Data for May 25, 2018
Time Temperature Dew Point Pressure Wind Wind Speed Wind Gust Humidity Rainfall Rate (Hourly) solar Conditions
00:03 71.4 °F /  21.9 °C 63.3 °F /  17.4 °C 29.8in /  1010.0hPa South 8mph /  12.9km/h 11mph /  17.7km/h 76% 0in /  0.0mm 0.0 W/m2 FEW
00:08 71.2 °F /  21.8 °C 63.3 °F /  17.4 °C 29.8in /  1010.0hPa South 8.6mph /  13.8km/h 11.5mph /  18.5km/h 76% 0in /  0.0mm 0.0 W/m2 FEW
00:13 71.2 °F /  21.8 °C 63.7 °F /  17.6 °C 29.8in /  1010.0hPa SSE 9.5mph /  15.3km/h 11.5mph /  18.5km/h 77% 0in /  0.0mm 0.0 W/m2 FEW
00:18 71.1 °F /  21.7 °C 63.5 °F /  17.5 °C 29.8in /  1010.0hPa South 8.6mph /  13.8km/h 11.5mph /  18.5km/h 77% 0in /  0.0mm 0.0 W/m2 FEW
00:23 71.1 °F /  21.7 °C 63.5 °F /  17.5 °C 29.8in /  1010.4hPa South 7.5mph /  12.1km/h 10.4mph /  16.7km/h 77% 0in /  0.0mm 0.0 W/m2 FEW
00:28 71.1 °F /  21.7 °C 63.9 °F /  17.7 °C 29.8in /  1010.4hPa South 7.8mph /  12.6km/h 11.5mph /  18.5km/h 78% 0in /  0.0mm 0.0 W/m2 FEW
00:33 71.1 °F /  21.7 °C 63.9 °F /  17.7 °C 29.8in /  1010.4hPa South 8.4mph /  13.5km/h 11.5mph /  18.5km/h 78% 0in /  0.0mm 0.0 W/m2 FEW
00:38 70.9 °F /  21.6 °C 63.7 °F /  17.6 °C 29.8in /  1010.0hPa South 7.3mph /  11.7km/h 10.4mph /  16.7km/h 78% 0in /  0.0mm 0.0 W/m2 FEW
00:43 70.5 °F /  21.4 °C 63.3 °F /  17.4 °C 29.8in /  1010.0hPa South 6.9mph /  11.1km/h 11.5mph /  18.5km/h 78% 0in /  0.0mm 0.0 W/m2 FEW
00:48 70.5 °F /  21.4 °C 63.7 °F /  17.6 °C 29.8in /  1010.4hPa South 9.4mph /  15.1km/h 10mph /  16.1km/h 79% 0in /  0.0mm 0.0 W/m2 FEW
00:53 70.3 °F /  21.3 °C 63.5 °F /  17.5 °C 29.8in /  1010.0hPa South 7.3mph /  11.7km/h 8.1mph /  13.0km/h 79% 0in /  0.0mm 0.0 W/m2 FEW
00:58 70.2 °F /  21.2 °C 63.7 °F /  17.6 °C 29.8in /  1010.0hPa SSE 7.5mph /  12.1km/h 11.5mph /  18.5km/h 80% 0in /  0.0mm 0.0 W/m2 FEW
01:03 70.2 °F /  21.2 °C 63.7 °F /  17.6 °C 29.8in /  1010.0hPa South 8.1mph /  13.0km/h 11.5mph /  18.5km/h 80% 0in /  0.0mm 0.0 W/m2 FEW
01:08 70.2 °F /  21.2 °C 63.7 °F /  17.6 °C 29.8in /  1010.0hPa SSE 7.8mph /  12.6km/h 9.2mph /  14.8km/h 80% 0in /  0.0mm 0.0 W/m2 FEW
01:13 70.2 °F /  21.2 °C 63.7 °F /  17.6 °C 29.8in /  1010.0hPa SSE 9.3mph /  15.0km/h 11.5mph /  18.5km/h 80% 0in /  0.0mm 0.0 W/m2 FEW
01:18 70 °F /  21.1 °C 63.9 °F /  17.7 °C 29.8in /  1009.7hPa SSE 7.3mph /  11.7km/h 9.2mph /  14.8km/h 81% 0in /  0.0mm 0.0 W/m2 FEW
01:23 70 °F /  21.1 °C 63.9 °F /  17.7 °C 29.8in /  1009.7hPa SSE 6.8mph /  10.9km/h 8.1mph /  13.0km/h 81% 0in /  0.0mm 0.0 W/m2 FEW
01:28 70 °F /  21.1 °C 63.9 °F /  17.7 °C 29.8in /  1009.7hPa SSE 8.5mph /  13.7km/h 11.5mph /  18.5km/h 81% 0in /  0.0mm 0.0 W/m2 FEW
01:33 70 °F /  21.1 °C 64.2 °F /  17.9 °C 29.8in /  1009.4hPa South 8.7mph /  14.0km/h 12.7mph /  20.4km/h 82% 0in /  0.0mm 0.0 W/m2 FEW
01:38 69.8 °F /  21.0 °C 64 °F /  17.8 °C 29.8in /  1009.4hPa SSE 8.6mph /  13.8km/h 10.4mph /  16.7km/h 82% 0in /  0.0mm 0.0 W/m2 FEW
01:43 69.8 °F /  21.0 °C 64 °F /  17.8 °C 29.8in /  1009.4hPa SSE 9.4mph /  15.1km/h 9.4mph /  15.1km/h 82% 0in /  0.0mm 0.0 W/m2 FEW
01:48 69.6 °F /  20.9 °C 64 °F /  17.8 °C 29.8in /  1009.0hPa SSE 8.5mph /  13.7km/h 11.5mph /  18.5km/h 82% 0in /  0.0mm 0.0 W/m2 FEW
01:53 69.4 °F /  20.8 °C 63.9 °F /  17.7 °C 29.8in /  1008.7hPa SE 7.9mph /  12.7km/h 9.2mph /  14.8km/h 82% 0in /  0.0mm 0.0 W/m2 FEW
01:58 69.4 °F /  20.8 °C 64 °F /  17.8 °C 29.8in /  1008.7hPa SE 7.1mph /  11.4km/h 9.2mph /  14.8km/h 83% 0in /  0.0mm 0.0 W/m2 FEW
02:03 69.1 °F /  20.6 °C 63.7 °F /  17.6 °C 29.8in /  1008.7hPa SSE 6.7mph /  10.8km/h 8.1mph /  13.0km/h 83% 0in /  0.0mm 0.0 W/m2 FEW
02:08 68.7 °F /  20.4 °C 63.3 °F /  17.4 °C 29.8in /  1008.4hPa ESE 6.4mph /  10.3km/h 7mph /  11.3km/h 83% 0in /  0.0mm 0.0 W/m2 FEW
02:13 68.4 °F /  20.2 °C 63.3 °F /  17.4 °C 29.8in /  1008.4hPa SE 6.7mph /  10.8km/h 9.2mph /  14.8km/h 84% 0in /  0.0mm 0.0 W/m2 FEW
02:18 68.2 °F /  20.1 °C 63.3 °F /  17.4 °C 29.8in /  1008.4hPa SE 5.9mph /  9.5km/h 7mph /  11.3km/h 85% 0in /  0.0mm 0.0 W/m2 FEW
02:23 67.8 °F /  19.9 °C 63.1 °F /  17.3 °C 29.8in /  1008.4hPa SSE 3.5mph /  5.6km/h 4mph /  6.4km/h 85% 0in /  0.0mm 0.0 W/m2 FEW
02:28 67.8 °F /  19.9 °C 63.5 °F /  17.5 °C 29.8in /  1008.4hPa ESE 3.4mph /  5.5km/h 3.5mph /  5.6km/h 86% 0in /  0.0mm 0.0 W/m2 FEW
02:33 67.6 °F /  19.8 °C 63.3 °F /  17.4 °C 29.8in /  1008.7hPa NE 1.6mph /  2.6km/h 2.3mph /  3.7km/h 86% 0in /  0.0mm 0.0 W/m2 FEW
02:38 67.6 °F /  19.8 °C 63.3 °F /  17.4 °C 29.8in /  1008.7hPa ESE 2.2mph /  3.5km/h 3.5mph /  5.6km/h 86% 0in /  0.0mm 0.0 W/m2 FEW
02:43 67.5 °F /  19.7 °C 63.1 °F /  17.3 °C 29.8in /  1008.4hPa SSE 5.9mph /  9.5km/h 7mph /  11.3km/h 86% 0in /  0.0mm 0.0 W/m2 FEW
02:48 67.5 °F /  19.7 °C 63.1 °F /  17.3 °C 29.8in /  1008.0hPa SE 7.4mph /  11.9km/h 9.2mph /  14.8km/h 86% 0in /  0.0mm 0.0 W/m2 FEW
02:53 67.3 °F /  19.6 °C 63.1 °F /  17.3 °C 29.8in /  1008.4hPa SSE 8.6mph /  13.8km/h 10.4mph /  16.7km/h 87% 0in /  0.0mm 0.0 W/m2 FEW
02:58 67.3 °F /  19.6 °C 63.1 °F /  17.3 °C 29.8in /  1008.4hPa SSE 9.1mph /  14.6km/h 10.4mph /  16.7km/h 87% 0in /  0.0mm 0.0 W/m2 FEW
03:03 67.3 °F /  19.6 °C 63.1 °F /  17.3 °C 29.8in /  1008.0hPa SSE 10mph /  16.1km/h 12.7mph /  20.4km/h 87% 0in /  0.0mm 0.0 W/m2 FEW
03:08 67.3 °F /  19.6 °C 63.1 °F /  17.3 °C 29.8in /  1008.0hPa SSE 9.6mph /  15.4km/h 11.5mph /  18.5km/h 87% 0in /  0.0mm 0.0 W/m2 FEW
03:13 67.3 °F /  19.6 °C 63.5 °F /  17.5 °C 29.8in /  1008.0hPa SSE 10mph /  16.1km/h 12.7mph /  20.4km/h 88% 0in /  0.0mm 0.0 W/m2 FEW
03:18 67.1 °F /  19.5 °C 63.3 °F /  17.4 °C 29.8in /  1007.7hPa SSE 9.9mph /  15.9km/h 11.5mph /  18.5km/h 88% 0in /  0.0mm 0.0 W/m2 FEW
03:23 67.1 °F /  19.5 °C 63.3 °F /  17.4 °C 29.8in /  1008.0hPa SSE 9mph /  14.5km/h 11.5mph /  18.5km/h 88% 0in /  0.0mm 0.0 W/m2 FEW
03:28 67.1 °F /  19.5 °C 63.3 °F /  17.4 °C 29.8in /  1008.0hPa SSE 7.7mph /  12.4km/h 9.2mph /  14.8km/h 88% 0in /  0.0mm 0.0 W/m2 FEW
03:33 67.3 °F /  19.6 °C 63.5 °F /  17.5 °C 29.8in /  1008.0hPa South 11.5mph /  18.5km/h 11.5mph /  18.5km/h 88% 0in /  0.0mm 0.0 W/m2 FEW
03:38 67.1 °F /  19.5 °C 63.3 °F /  17.4 °C 29.8in /  1008.0hPa SSW 8.8mph /  14.2km/h 10.4mph /  16.7km/h 88% 0in /  0.0mm 0.0 W/m2 FEW
03:43 67.1 °F /  19.5 °C 63.3 °F /  17.4 °C 29.8in /  1008.0hPa South 9.7mph /  15.6km/h 11.5mph /  18.5km/h 88% 0in /  0.0mm 0.0 W/m2 FEW
03:48 66.9 °F /  19.4 °C 63.7 °F /  17.6 °C 29.8in /  1008.0hPa South 7.7mph /  12.4km/h 10.4mph /  16.7km/h 89% 0in /  0.0mm 0.0 W/m2 FEW
03:53 66.9 °F /  19.4 °C 63.7 °F /  17.6 °C 29.8in /  1008.0hPa South 6mph /  9.7km/h 6mph /  9.7km/h 89% 0in /  0.0mm 0.0 W/m2 FEW
03:58 66.9 °F /  19.4 °C 63.7 °F /  17.6 °C 29.8in /  1008.0hPa SE 3.3mph /  5.3km/h 4.6mph /  7.4km/h 89% 0in /  0.0mm 0.0 W/m2 FEW
04:03 66.7 °F /  19.3 °C 63.5 °F /  17.5 °C 29.8in /  1008.0hPa SSE 1.8mph /  2.9km/h 3.5mph /  5.6km/h 89% 0in /  0.0mm 0.0 W/m2 FEW
04:08 66.7 °F /  19.3 °C 63.3 °F /  17.4 °C 29.8in /  1008.0hPa South 3.2mph /  5.1km/h 3.5mph /  5.6km/h 89% 0in /  0.0mm 0.0 W/m2 FEW
04:13 66.6 °F /  19.2 °C 63.3 °F /  17.4 °C 29.8in /  1008.0hPa South 6.2mph /  10.0km/h 6.9mph /  11.1km/h 89% 0in /  0.0mm 0.0 W/m2 FEW
04:18 66.7 °F /  19.3 °C 63.3 °F /  17.4 °C 29.8in /  1008.0hPa South 4.4mph /  7.1km/h 5mph /  8.0km/h 89% 0in /  0.0mm 0.0 W/m2 FEW
04:23 66.6 °F /  19.2 °C 63.3 °F /  17.4 °C 29.8in /  1008.0hPa SSE 5.9mph /  9.5km/h 6.9mph /  11.1km/h 89% 0in /  0.0mm 0.0 W/m2 FEW
04:28 66.6 °F /  19.2 °C 63.1 °F /  17.3 °C 29.8in /  1008.0hPa South 6.5mph /  10.5km/h 8.1mph /  13.0km/h 89% 0in /  0.0mm 0.0 W/m2 FEW
04:33 66.4 °F /  19.1 °C 63.1 °F /  17.3 °C 29.8in /  1008.0hPa South 8mph /  12.9km/h 10.4mph /  16.7km/h 89% 0in /  0.0mm 0.0 W/m2 FEW
04:38 66.4 °F /  19.1 °C 63.1 °F /  17.3 °C 29.8in /  1008.0hPa South 7.1mph /  11.4km/h 9.2mph /  14.8km/h 89% 0in /  0.0mm 0.0 W/m2 FEW
04:43 66.6 °F /  19.2 °C 63.1 °F /  17.3 °C 29.8in /  1008.0hPa SSW 7.3mph /  11.7km/h 9.2mph /  14.8km/h 89% 0in /  0.0mm 0.0 W/m2 FEW
04:48 66.6 °F /  19.2 °C 63.1 °F /  17.3 °C 29.8in /  1008.0hPa SSW 6.9mph /  11.1km/h 8.1mph /  13.0km/h 89% 0in /  0.0mm 0.0 W/m2 FEW
04:53 66.6 °F /  19.2 °C 63.1 °F /  17.3 °C 29.8in /  1008.0hPa South 7.3mph /  11.7km/h 8.1mph /  13.0km/h 89% 0in /  0.0mm 0.0 W/m2 FEW
04:58 66.6 °F /  19.2 °C 63 °F /  17.2 °C 29.8in /  1008.0hPa SSW 7.2mph /  11.6km/h 10.4mph /  16.7km/h 88% 0in /  0.0mm 0.0 W/m2 FEW
05:03 66.6 °F /  19.2 °C 62.6 °F /  17.0 °C 29.8in /  1008.0hPa SSW 6.7mph /  10.8km/h 7mph /  11.3km/h 87% 0in /  0.0mm 0.0 W/m2 FEW
05:08 66.7 °F /  19.3 °C 62.1 °F /  16.7 °C 29.8in /  1008.0hPa SSW 6.7mph /  10.8km/h 10.4mph /  16.7km/h 85% 0in /  0.0mm 0.0 W/m2 FEW
05:13 66.9 °F /  19.4 °C 61.5 °F /  16.4 °C 29.8in /  1008.0hPa SSW 8.5mph /  13.7km/h 11.5mph /  18.5km/h 83% 0in /  0.0mm 0.0 W/m2 FEW
05:18 66.9 °F /  19.4 °C 61.7 °F /  16.5 °C 29.8in /  1007.7hPa SW 5.7mph /  9.2km/h 7mph /  11.3km/h 83% 0in /  0.0mm 0.0 W/m2 FEW
05:23 66.9 °F /  19.4 °C 61.2 °F /  16.2 °C 29.8in /  1007.7hPa SW 7mph /  11.3km/h 9.2mph /  14.8km/h 82% 0in /  0.0mm 0.0 W/m2 FEW
05:28 66.9 °F /  19.4 °C 61.2 °F /  16.2 °C 29.8in /  1008.0hPa SW 7.1mph /  11.4km/h 10.4mph /  16.7km/h 82% 0in /  0.0mm 0.0 W/m2 FEW
05:33 66.9 °F /  19.4 °C 61.2 °F /  16.2 °C 29.8in /  1008.0hPa SW 7.4mph /  11.9km/h 10.4mph /  16.7km/h 82% 0in /  0.0mm 0.0 W/m2 FEW
05:38 66.9 °F /  19.4 °C 61 °F /  16.1 °C 29.8in /  1007.7hPa WSW 7.6mph /  12.2km/h 8.1mph /  13.0km/h 81% 0in /  0.0mm 0.0 W/m2 FEW
05:43 66.7 °F /  19.3 °C 60.8 °F /  16.0 °C 29.8in /  1007.7hPa WSW 8mph /  12.9km/h 9.2mph /  14.8km/h 81% 0in /  0.0mm 0.0 W/m2 FEW
05:48 66.9 °F /  19.4 °C 60.6 °F /  15.9 °C 29.8in /  1007.7hPa WSW 8.3mph /  13.4km/h 10.4mph /  16.7km/h 80% 0in /  0.0mm 0.0 W/m2 FEW
05:53 67.3 °F /  19.6 °C 60.1 °F /  15.6 °C 29.8in /  1007.7hPa WSW 8.4mph /  13.5km/h 11.5mph /  18.5km/h 78% 0in /  0.0mm 0.0 W/m2 FEW
05:58 67.5 °F /  19.7 °C 60.1 °F /  15.6 °C 29.8in /  1007.7hPa WSW 8.7mph /  14.0km/h 11.5mph /  18.5km/h 77% 0in /  0.0mm 0.0 W/m2 FEW
06:03 67.6 °F /  19.8 °C 59.7 °F /  15.4 °C 29.8in /  1007.7hPa WSW 7.3mph /  11.7km/h 10.4mph /  16.7km/h 76% 0in /  0.0mm 5.0 W/m2 FEW
06:08 67.6 °F /  19.8 °C 59.4 °F /  15.2 °C 29.8in /  1007.7hPa WSW 7.3mph /  11.7km/h 9.2mph /  14.8km/h 75% 0in /  0.0mm 5.0 W/m2 FEW
06:13 67.5 °F /  19.7 °C 59.7 °F /  15.4 °C 29.8in /  1007.7hPa West 7.2mph /  11.6km/h 10.4mph /  16.7km/h 76% 0in /  0.0mm 7.0 W/m2 FEW
06:18 67.5 °F /  19.7 °C 59.2 °F /  15.1 °C 29.8in /  1007.7hPa WSW 8.9mph /  14.3km/h 11.5mph /  18.5km/h 75% 0in /  0.0mm 14.0 W/m2 FEW
06:22 67.3 °F /  19.6 °C 59.2 °F /  15.1 °C 29.8in /  1007.7hPa West 9mph /  14.5km/h 12mph /  19.3km/h 75% 0in /  0.0mm 21.0 W/m2 FEW
06:23 67.5 °F /  19.7 °C 58.8 °F /  14.9 °C 29.8in /  1007.7hPa West 8.1mph /  13.0km/h 11.5mph /  18.5km/h 74% 0in /  0.0mm 23.0 W/m2 FEW
06:28 67.5 °F /  19.7 °C 58.3 °F /  14.6 °C 29.8in /  1007.7hPa WSW 7.1mph /  11.4km/h 9.2mph /  14.8km/h 72% 0in /  0.0mm 30.0 W/m2 FEW
06:33 68.2 °F /  20.1 °C 57.6 °F /  14.2 °C 29.8in /  1007.7hPa WSW 8.3mph /  13.4km/h 10.4mph /  16.7km/h 69% 0in /  0.0mm 40.0 W/m2 FEW
06:38 68.5 °F /  20.3 °C 57.9 °F /  14.4 °C 29.8in /  1007.7hPa WSW 6.8mph /  10.9km/h 9.2mph /  14.8km/h 69% 0in /  0.0mm 54.0 W/m2 FEW
06:43 68.7 °F /  20.4 °C 57.7 °F /  14.3 °C 29.8in /  1007.7hPa West 8.3mph /  13.4km/h 10.4mph /  16.7km/h 68% 0in /  0.0mm 54.0 W/m2 FEW
06:48 69.1 °F /  20.6 °C 58.1 °F /  14.5 °C 29.8in /  1008.0hPa West 7.8mph /  12.6km/h 9.2mph /  14.8km/h 68% 0in /  0.0mm 72.0 W/m2 FEW
06:53 69.3 °F /  20.7 °C 57.9 °F /  14.4 °C 29.8in /  1008.0hPa WSW 7.8mph /  12.6km/h 10.4mph /  16.7km/h 67% 0in /  0.0mm 67.0 W/m2 FEW
06:58 69.3 °F /  20.7 °C 58.3 °F /  14.6 °C 29.8in /  1008.0hPa West 7.1mph /  11.4km/h 9.2mph /  14.8km/h 68% 0in /  0.0mm 100.0 W/m2 FEW
07:03 69.4 °F /  20.8 °C 58.5 °F /  14.7 °C 29.8in /  1008.0hPa West 6.9mph /  11.1km/h 10.4mph /  16.7km/h 68% 0in /  0.0mm 113.0 W/m2 FEW
07:08 69.6 °F /  20.9 °C 58.6 °F /  14.8 °C 29.8in /  1008.0hPa WSW 5.5mph /  8.8km/h 7mph /  11.3km/h 68% 0in /  0.0mm 120.0 W/m2 FEW
07:13 69.8 °F /  21.0 °C 58.8 °F /  14.9 °C 29.8in /  1008.0hPa West 5.6mph /  9.0km/h 9.2mph /  14.8km/h 68% 0in /  0.0mm 125.0 W/m2 FEW
07:18 70.2 °F /  21.2 °C 58.6 °F /  14.8 °C 29.8in /  1008.4hPa West 8.4mph /  13.5km/h 10.4mph /  16.7km/h 67% 0in /  0.0mm 141.0 W/m2 FEW
07:23 70.2 °F /  21.2 °C 59.2 °F /  15.1 °C 29.8in /  1008.4hPa WSW 7.3mph /  11.7km/h 9.2mph /  14.8km/h 68% 0in /  0.0mm 153.0 W/m2 FEW
07:28 70.3 °F /  21.3 °C 58.8 °F /  14.9 °C 29.8in /  1008.4hPa West 7.3mph /  11.7km/h 10.4mph /  16.7km/h 67% 0in /  0.0mm 165.0 W/m2 FEW
07:33 70.7 °F /  21.5 °C 58.8 °F /  14.9 °C 29.8in /  1008.4hPa West 11.1mph /  17.9km/h 13.8mph /  22.2km/h 66% 0in /  0.0mm 158.0 W/m2 FEW
07:38 71.1 °F /  21.7 °C 58.6 °F /  14.8 °C 29.8in /  1008.4hPa West 12mph /  19.3km/h 13.8mph /  22.2km/h 65% 0in /  0.0mm 179.0 W/m2 FEW
07:43 71.1 °F /  21.7 °C 59.2 °F /  15.1 °C 29.8in /  1008.7hPa West 10.6mph /  17.1km/h 12mph /  19.3km/h 66% 0in /  0.0mm 197.0 W/m2 FEW
07:48 71.2 °F /  21.8 °C 59.7 °F /  15.4 °C 29.8in /  1008.7hPa West 9.3mph /  15.0km/h 11.5mph /  18.5km/h 67% 0in /  0.0mm 214.0 W/m2 FEW
07:53 71.4 °F /  21.9 °C 60.4 °F /  15.8 °C 29.8in /  1008.7hPa WNW 10.4mph /  16.7km/h 12mph /  19.3km/h 68% 0in /  0.0mm 241.0 W/m2 FEW
Friend Weather